• Join FlightAware (Why Join?)
  • Login
  • US Flag 
04:42PM EDT


 

Airport Tracker/Info


-or-


 

Live Flight TrackerFlight Track Log ✈ SKW5517 ✈ 26-Apr-2013 ✈ KGFK - KDEN

Flight Track Log - Related Links

Times and Time Zones

All times are in EDT time to prevent confusion due to time zone crossing. See the SKW5517 flight status page for this flight to view local times or setup timezone preferences in your user account.

Time Position Orientation Groundspeed Altitude Reporting Facility
EDT Latitude Longitude Course Direction KTS MPH feet Rate Location/Type
06:00PM 47.9725 -97.1814 227° Southwest 160 184 1,700  Level Minneapolis Center
06:01PM 47.9958 -97.1828 358° North 171 197 2,400 1,620 Climbing Minneapolis Center
06:01PM 48.0183 -97.1803 North 192 221 3,200 3,180 Climbing Minneapolis Center
06:02PM 48.0525 -97.1808 359° North 197 227 5,700 3,300 Climbing Minneapolis Center
06:03PM 47.6925 -97.5364 225° Southwest  Level FlightAware Approximate
06:03PM 48.0292 -97.2539 244° Southwest 231 266 9,100  Level Minneapolis Center
06:04PM 47.6102 -97.6570 224° Southwest  Level FlightAware Approximate
06:04PM 47.9528 -97.2939 199° South 267 307 11,300  Level Minneapolis Center
06:05PM 47.5272 -97.7763 227° Southwest  Level FlightAware Approximate
06:05PM 47.8714 -97.3378 200° South 291 335 14,100  Level Minneapolis Center
06:06PM 47.4480 -97.9010 227° Southwest  Level FlightAware Approximate
06:06PM 47.7986 -97.4033 211° Southwest 300 345 16,400  Level Minneapolis Center
06:07PM 47.7364 -97.4969 225° Southwest 311 358 18,000 1,800 Climbing Minneapolis Center
06:08PM 47.6719 -97.5922 225° Southwest 320 368 20,200 1,980 Climbing Minneapolis Center
06:09PM 47.5939 -97.7089 225° Southwest 329 379 22,100 1,440 Climbing Minneapolis Center
06:10PM 47.5406 -97.7894 226° Southwest 335 386 23,200 1,260 Climbing Minneapolis Center
06:11PM 47.4553 -97.9167 225° Southwest 344 396 24,800 1,320 Climbing Minneapolis Center
06:12PM 47.3836 -98.0225 225° Southwest 357 411 26,000 1,020 Climbing Minneapolis Center
06:13PM 47.3106 -98.1300 225° Southwest 367 422 27,000 960 Climbing Minneapolis Center
06:14PM 47.2367 -98.2381 225° Southwest 375 432 28,000 840 Climbing Minneapolis Center
06:15PM 47.1614 -98.3483 225° Southwest 379 436 28,800 720 Climbing Minneapolis Center
06:17PM 47.0847 -98.4603 225° Southwest 386 444 29,600 720 Climbing Minneapolis Center
06:18PM 47.0072 -98.5747 225° Southwest 393 452 30,400 720 Climbing Minneapolis Center
06:19PM 46.9086 -98.7050 222° Southwest 399 459 31,100 660 Climbing Minneapolis Center
06:20PM 46.8075 -98.7881 209° Southwest 411 473 31,800 420 Climbing Minneapolis Center
06:21PM 46.7094 -98.8697 210° Southwest 410 472 32,000 60 Climbing Minneapolis Center
06:22PM 46.6131 -98.9519 210° Southwest 405 466 32,000  Level Minneapolis Center
06:23PM 46.5183 -99.0306 210° Southwest 396 456 32,000  Level Minneapolis Center
06:24PM 46.4258 -99.1083 210° Southwest 390 449 32,000  Level Minneapolis Center
06:25PM 46.3136 -99.2022 210° Southwest 388 447 32,000  Level Minneapolis Center
06:26PM 46.2208 -99.2794 210° Southwest 387 445 32,000  Level Minneapolis Center
06:27PM 46.1183 -99.3644 210° Southwest 386 444 32,000  Level Minneapolis Center
06:28PM 46.0236 -99.4414 209° Southwest 388 447 32,000  Level Minneapolis Center
06:29PM 45.9292 -99.5192 210° Southwest 390 449 32,000  Level Minneapolis Center
06:30PM 45.8347 -99.5961 210° Southwest 391 450 32,000  Level Minneapolis Center
06:31PM 45.7394 -99.6742 210° Southwest 394 453 32,000  Level Minneapolis Center
06:32PM 45.6425 -99.7511 209° Southwest 397 457 32,000  Level Minneapolis Center
06:33PM 45.5261 -99.8447 209° Southwest 400 460 32,000  Level Minneapolis Center
06:34PM 45.4294 -99.9219 209° Southwest 400 460 32,000  Level Minneapolis Center
06:35PM 45.3331 -99.9992 209° Southwest 400 460 32,000  Level Minneapolis Center
06:36PM 45.2364 -100.0767 209° Southwest 402 463 32,000  Level Minneapolis Center
06:37PM 45.1397 -100.1533 209° Southwest 404 465 32,000  Level Minneapolis Center
06:38PM 45.0233 -100.2444 209° Southwest 406 467 32,000  Level Minneapolis Center
06:39PM 44.9261 -100.3222 210° Southwest 405 466 32,000  Level Minneapolis Center
06:40PM 44.8292 -100.3969 209° Southwest 402 463 32,000  Level Minneapolis Center
06:41PM 44.7311 -100.4717 208° Southwest 402 463 32,000  Level Minneapolis Center
06:42PM 44.6144 -100.5628 209° Southwest 400 460 32,000  Level Minneapolis Center
06:43PM 44.5161 -100.6372 208° Southwest 401 461 32,000  Level Minneapolis Center
06:44PM 44.4183 -100.7122 209° Southwest 401 461 32,000  Level Minneapolis Center
06:46PM 44.2614 -100.8300 208° Southwest 399 459 32,000  Level Denver Center
06:47PM 44.2242 -100.8622 212° Southwest 399 459 32,000  Level Minneapolis Center
06:48PM 44.1053 -100.9508 208° Southwest 401 461 32,000  Level Minneapolis Center
06:49PM 43.9881 -101.0403 209° Southwest 401 461 32,000  Level Minneapolis Center
06:50PM 43.8897 -101.1156 209° Southwest 402 463 32,000  Level Minneapolis Center
06:51PM 43.7911 -101.1894 208° Southwest 404 465 32,000  Level Minneapolis Center
06:52PM 43.6925 -101.2636 209° Southwest 403 464 32,000  Level Minneapolis Center
06:53PM 43.6131 -101.3219 208° Southwest 404 465 32,000  Level Minneapolis Center
06:53PM 43.5539 -101.3647 208° Southwest 402 463 32,000  Level Denver Center
06:54PM 43.4558 -101.4375 208° Southwest 402 463 32,000  Level Denver Center
06:55PM 43.3775 -101.4958 208° Southwest 400 460 32,000  Level Denver Center
06:56PM 43.2594 -101.5797 207° Southwest 399 459 32,000  Level Denver Center
06:57PM 43.1592 -101.6467 206° Southwest 400 460 32,000  Level Denver Center
06:58PM 43.0594 -101.7131 206° Southwest 399 459 32,000  Level Denver Center
06:59PM 42.9347 -101.7961 206° Southwest 400 460 32,000  Level Denver Center
07:00PM 42.8394 -101.8611 207° Southwest 401 461 32,000  Level Denver Center
07:02PM 42.7439 -101.9244 206° Southwest 399 459 32,000  Level Denver Center
07:03PM 42.6322 -101.9981 206° Southwest 399 459 32,000  Level Denver Center
07:04PM 42.5372 -102.0611 206° Southwest 398 458 32,000  Level Denver Center
07:05PM 42.4253 -102.1336 206° Southwest 398 458 32,000  Level Denver Center
07:06PM 42.3289 -102.1967 206° Southwest 401 461 32,000  Level Denver Center
07:07PM 42.2172 -102.2697 206° Southwest 399 459 32,000  Level Denver Center
07:08PM 42.1219 -102.3325 206° Southwest 397 457 32,000  Level Denver Center
07:09PM 42.0092 -102.4042 205° Southwest 401 461 32,000  Level Denver Center
07:10PM 41.9136 -102.4656 206° Southwest 401 461 32,000  Level Denver Center
07:11PM 41.8181 -102.5275 206° Southwest 398 458 32,000  Level Denver Center
07:12PM 41.7056 -102.5997 206° Southwest 400 460 32,000  Level Denver Center
07:13PM 41.5775 -102.6808 205° Southwest 399 459 32,000  Level Denver Center
07:14PM 41.4822 -102.7408 205° Southwest 396 456 32,000  Level Denver Center
07:15PM 41.3844 -102.8022 205° Southwest 403 464 32,000  Level Denver Center
07:16PM 41.2678 -102.8750 205° Southwest 414 476 32,000  Level Denver Center
07:17PM 41.1556 -102.9461 206° Southwest 430 495 32,000  Level Denver Center
07:18PM 41.0511 -103.0464 216° Southwest 447 514 32,000  Level Denver Center
07:19PM 40.9586 -103.1772 227° Southwest 461 531 32,000  Level Denver Center
07:20PM 40.8681 -103.3014 226° Southwest 465 535 32,000 -660 Level Denver Center
07:21PM 40.7783 -103.4272 227° Southwest 467 537 30,700 -1,860 Descending Denver Center
07:22PM 40.6886 -103.5511 226° Southwest 464 534 28,200 -2,280 Descending Denver Center
07:23PM 40.6056 -103.6647 226° Southwest 432 497 26,000 -2,460 Descending Denver Center
07:24PM 40.5267 -103.7742 227° Southwest 411 473 23,200 -2,460 Descending Denver Center
07:25PM 40.4411 -103.8900 226° Southwest 402 463 21,000 -1,500 Descending Denver Center
07:26PM 40.3681 -103.9911 227° Southwest 359 413 20,100 -1,260 Descending Denver Center
07:28PM 40.2903 -104.0772 220° Southwest 368 423 18,500 -1,560 Descending Denver Center
07:29PM 40.2131 -104.1622 220° Southwest 358 412 16,900 -1,680 Descending Denver Center
07:30PM 40.1164 -104.2667 220° Southwest 353 406 14,800 -1,620 Descending Denver Center
07:31PM 40.0436 -104.3464 220° Southwest 342 394 13,000 -1,140 Descending Denver Center
07:31PM 40.0000 -104.3833 213° Southwest 308 354 13,000 -660 Level Denver TRACON
07:33PM 39.9500 -104.5000 241° Southwest 295 339 12,000 -960 Descending Denver TRACON
07:34PM 39.9333 -104.6000 258° West 267 307 11,000 -660 Descending Denver TRACON
07:34PM 39.9347 -104.6447 272° West 266 306 11,000  Level Denver Center
07:35PM 39.9347 -104.7431 270° West 257 296 11,000 -600 Level Denver Center
07:36PM 39.9331 -104.8300 269° West 241 277 9,800 -1,260 Descending Denver Center
07:37PM 39.8831 -104.8569 202° Southwest 223 257 8,500 -1,380 Descending Denver Center
07:38PM 39.8475 -104.8192 141° Southeast 170 196 7,000 -1,500 Descending Denver Center